Time;durP1;ratioP1;P1;durP2;ratioP2;P2;SDS_P1;SDS_P2;PMS_P1;PMS_P2;Temp;Humidity;BMP_temperature;BMP_pressure;BME280_temperature;BME280_humidity;BME280_pressure;Samples;Min_cycle;Max_cycle;Signal;HPM_P1;HPM_P2
2022/09/14 00:01:33;;;;;;;1.90;1.80;;;;;;;18.19;80.83;97404.06;6191292;23;20417;-85
2022/09/14 00:04:11;;;;;;;2.17;1.98;;;;;;;18.23;80.73;97410.41;6242871;23;20070;-83
2022/09/14 00:06:39;;;;;;;1.90;1.70;;;;;;;18.18;80.20;97407.78;6190191;23;20026;-84
2022/09/14 00:09:07;;;;;;;2.15;1.95;;;;;;;18.22;80.16;97402.72;6242265;23;20102;-84
2022/09/14 00:11:35;;;;;;;2.88;2.30;;;;;;;18.21;79.96;97409.88;6242921;23;20401;-85
2022/09/14 00:14:04;;;;;;;2.38;2.17;;;;;;;18.13;79.78;97408.56;6244400;23;20095;-85
2022/09/14 00:16:37;;;;;;;2.97;2.78;;;;;;;18.05;79.70;97395.00;6244864;23;20039;-85
2022/09/14 00:19:12;;;;;;;3.00;2.70;;;;;;;18.07;80.22;97382.28;6243692;23;20020;-85
2022/09/14 00:21:41;;;;;;;3.13;2.50;;;;;;;18.08;80.40;97378.56;6242714;23;20016;-82
2022/09/14 00:24:10;;;;;;;3.88;2.35;;;;;;;18.13;79.76;97373.28;6241607;23;20410;-85
2022/09/14 00:26:37;;;;;;;2.97;2.78;;;;;;;18.12;79.59;97364.50;6242106;22;20016;-86
2022/09/14 00:29:05;;;;;;;2.95;2.75;;;;;;;18.05;79.92;97352.56;6244971;23;20051;-85
2022/09/14 00:31:36;;;;;;;2.75;2.40;;;;;;;18.07;79.79;97361.84;6213113;23;20026;-87
2022/09/14 00:34:06;;;;;;;2.78;2.47;;;;;;;18.03;80.48;97350.16;6238920;23;20020;-86
2022/09/14 00:36:50;;;;;;;2.40;2.20;;;;;;;18.07;79.67;97351.25;6244060;23;20012;-85
2022/09/14 00:39:20;;;;;;;3.30;3.00;;;;;;;18.01;81.15;97362.13;6217362;23;20573;-85
2022/09/14 00:41:48;;;;;;;2.88;2.55;;;;;;;17.98;81.51;97365.28;6216803;23;20546;-85
2022/09/14 00:44:15;;;;;;;2.50;2.30;;;;;;;18.08;81.31;97367.97;6244086;23;20016;-84
2022/09/14 00:46:49;;;;;;;3.42;2.40;;;;;;;18.05;80.84;97355.22;6244368;23;20013;-86
2022/09/14 00:49:36;;;;;;;3.15;2.40;;;;;;;18.05;80.91;97352.56;6244559;23;20094;-85
2022/09/14 00:52:19;;;;;;;2.40;2.20;;;;;;;18.03;80.86;97352.03;6218675;23;20051;-85
2022/09/14 00:54:52;;;;;;;2.40;2.20;;;;;;;18.00;81.33;97355.22;6244323;23;20026;-84
2022/09/14 00:57:20;;;;;;;3.70;3.40;;;;;;;17.91;81.06;97362.91;6217624;23;20497;-84
2022/09/14 00:59:50;;;;;;;2.83;2.63;;;;;;;17.96;81.21;97364.78;6217360;23;20020;-85
2022/09/14 01:02:21;;;;;;;2.50;2.30;;;;;;;17.88;81.54;97337.72;6243664;23;20472;-84
2022/09/14 01:04:50;;;;;;;2.88;2.65;;;;;;;17.91;81.33;97337.16;6192338;23;20016;-85
2022/09/14 01:07:41;;;;;;;2.97;2.78;;;;;;;17.91;81.46;97341.69;6243374;23;20453;-85
2022/09/14 01:10:27;;;;;;;2.95;2.35;;;;;;;18.01;81.56;97344.34;6243568;23;20020;-84
2022/09/14 01:13:03;;;;;;;2.47;2.28;;;;;;;18.03;82.05;97334.25;6217950;23;20050;-83
2022/09/14 01:15:52;;;;;;;2.95;2.70;;;;;;;17.95;82.18;97313.56;6191589;23;20026;-82
2022/09/14 01:18:36;;;;;;;2.58;2.38;;;;;;;18.00;82.34;97308.28;6242826;23;20038;-82
2022/09/14 01:21:14;;;;;;;3.17;2.85;;;;;;;17.99;82.41;97281.97;6242693;23;20381;-83
2022/09/14 01:24:15;;;;;;;2.85;2.63;;;;;;;18.02;82.50;97284.13;6216935;23;20026;-84
2022/09/14 01:27:18;;;;;;;2.90;2.70;;;;;;;17.99;83.20;97285.44;6242613;22;20016;-85
2022/09/14 01:30:08;;;;;;;4.80;4.40;;;;;;;17.87;83.81;97283.06;6191311;23;20063;-85
2022/09/14 01:33:06;;;;;;;3.50;3.20;;;;;;;17.86;83.77;97293.94;6216444;23;20095;-84
2022/09/14 01:35:45;;;;;;;3.15;2.85;;;;;;;17.80;83.72;97298.44;6212804;23;20023;-86
2022/09/14 01:38:39;;;;;;;3.95;3.47;;;;;;;17.70;84.29;97290.47;6242835;23;20019;-85
2022/09/14 01:41:13;;;;;;;2.53;2.33;;;;;;;17.79;84.05;97304.81;6243113;23;20027;-85
2022/09/14 01:43:57;;;;;;;2.42;2.22;;;;;;;17.86;83.88;97307.97;6242425;23;20028;-85
2022/09/14 01:46:44;;;;;;;2.25;2.00;;;;;;;17.88;83.56;97311.19;6243542;23;20015;-85
2022/09/14 01:49:20;;;;;;;2.15;1.95;;;;;;;17.88;83.66;97305.88;6243771;23;20020;-83
2022/09/14 01:52:02;;;;;;;2.78;2.20;;;;;;;17.83;nan;97308.53;6244546;23;20477;-84
2022/09/14 01:54:36;;;;;;;2.83;2.63;;;;;;;17.77;83.77;97301.63;6243622;23;20076;-90
2022/09/14 01:57:28;;;;;;;3.05;2.80;;;;;;;17.78;83.94;97299.78;6217595;23;20087;-90
2022/09/14 02:00:02;;;;;;;2.63;2.42;;;;;;;17.70;84.03;97293.13;6244826;23;20510;-88
2022/09/14 02:02:57;;;;;;;3.00;2.80;;;;;;;17.70;84.04;97297.63;6243232;23;20024;-89
2022/09/14 02:05:39;;;;;;;3.90;3.60;;;;;;;17.56;84.07;97286.72;6217661;23;20026;-89
2022/09/14 02:08:05;;;;;;;4.18;3.15;;;;;;;17.62;84.17;97296.28;6243772;23;20024;-89
2022/09/14 02:10:33;;;;;;;4.15;3.70;;;;;;;17.53;84.35;97284.63;6217166;23;20027;-90
2022/09/14 02:13:01;;;;;;;3.33;2.95;;;;;;;17.46;84.51;97271.63;6244444;23;20088;-89
2022/09/14 02:15:28;;;;;;;5.25;3.90;;;;;;;17.43;84.47;97276.66;6218301;23;20058;-90
2022/09/14 02:17:55;;;;;;;4.35;3.97;;;;;;;17.39;85.16;97282.47;6219269;23;20012;-90
2022/09/14 02:20:36;;;;;;;3.20;2.90;;;;;;;17.46;85.20;97278.78;6245939;23;20016;-90
2022/09/14 02:23:04;;;;;;;2.97;2.78;;;;;;;17.47;84.83;97272.41;6218143;23;20593;-89
2022/09/14 02:25:31;;;;;;;2.60;2.40;;;;;;;17.48;84.91;97274.00;6243864;22;20464;-90
2022/09/14 02:27:58;;;;;;;2.42;2.20;;;;;;;17.56;84.88;97276.13;6217751;23;20517;-90
2022/09/14 02:30:26;;;;;;;3.55;2.10;;;;;;;17.57;84.91;97280.34;6242578;23;20043;-90
2022/09/14 02:33:24;;;;;;;3.30;3.00;;;;;;;17.48;85.14;97266.06;6243734;23;20023;-90
2022/09/14 02:36:06;;;;;;;5.20;4.53;;;;;;;17.36;85.11;97264.44;6239208;23;20748;-84
2022/09/14 02:39:13;;;;;;;4.55;4.10;;;;;;;17.32;85.82;97255.41;6242334;23;20115;-84
2022/09/14 02:41:53;;;;;;;3.70;3.40;;;;;;;17.24;86.09;97240.03;6243432;23;20032;-84
2022/09/14 02:44:52;;;;;;;2.80;2.60;;;;;;;17.36;86.13;97234.50;6215662;23;20027;-84
2022/09/14 02:47:38;;;;;;;2.30;2.10;;;;;;;17.43;85.75;97235.03;6242715;23;20017;-84
2022/09/14 02:50:23;;;;;;;2.50;2.22;;;;;;;17.50;85.75;97232.09;6242537;23;20082;-84
2022/09/14 02:53:00;;;;;;;3.63;3.33;;;;;;;17.41;86.10;97205.34;6242789;23;20020;-86
2022/09/14 02:55:41;;;;;;;4.10;3.72;;;;;;;17.38;85.96;97206.66;6216189;23;20055;-85
2022/09/14 02:58:11;;;;;;;3.20;2.90;;;;;;;17.30;86.20;97196.59;6242126;23;20015;-85
2022/09/14 03:00:47;;;;;;;4.45;4.05;;;;;;;17.30;86.83;97209.84;6242608;23;20346;-84
2022/09/14 03:03:18;;;;;;;2.83;2.53;;;;;;;17.32;86.88;97207.72;6215687;23;20023;-84
2022/09/14 03:05:46;;;;;;;2.83;2.53;;;;;;;17.33;86.95;97209.31;6242562;23;20039;-85
2022/09/14 03:08:13;;;;;;;1.98;1.88;;;;;;;17.37;86.58;97205.06;6214939;23;20068;-85
2022/09/14 03:10:43;;;;;;;2.20;2.00;;;;;;;17.50;86.26;97202.94;6242965;23;20441;-84
2022/09/14 03:13:10;;;;;;;2.20;2.00;;;;;;;17.57;85.93;97208.78;6241695;23;20040;-85
2022/09/14 03:15:38;;;;;;;3.17;2.88;;;;;;;17.51;86.20;97228.41;6242275;23;20026;-86
2022/09/14 03:18:06;;;;;;;4.95;3.85;;;;;;;17.33;86.83;97241.13;6242628;23;20016;-85
2022/09/14 03:20:38;;;;;;;3.42;3.13;;;;;;;17.37;87.02;97259.94;6242139;23;20110;-84
2022/09/14 03:23:07;;;;;;;3.70;3.40;;;;;;;17.36;86.72;97267.09;6215166;23;20020;-84
2022/09/14 03:25:43;;;;;;;2.97;2.75;;;;;;;17.42;86.83;97285.66;6215812;23;20020;-84
2022/09/14 03:28:11;;;;;;;3.45;2.40;;;;;;;17.48;86.98;97289.91;6242434;23;20216;-86
2022/09/14 03:30:38;;;;;;;2.45;2.15;;;;;;;17.50;86.53;97293.88;6242390;23;20066;-87
2022/09/14 03:33:05;;;;;;;2.30;2.10;;;;;;;17.51;86.47;97306.09;6190662;23;20030;-85
2022/09/14 03:35:32;;;;;;;3.67;3.38;;;;;;;17.41;86.24;97315.88;6238628;23;20020;-84
2022/09/14 03:38:01;;;;;;;3.30;3.00;;;;;;;17.31;86.86;97304.19;6215864;23;20094;-84
2022/09/14 03:40:29;;;;;;;3.05;2.75;;;;;;;17.37;87.24;97305.00;6242534;23;20070;-84
2022/09/14 03:42:56;;;;;;;3.08;2.78;;;;;;;17.41;87.36;97308.72;6215875;23;20055;-84
2022/09/14 03:45:22;;;;;;;2.75;2.13;;;;;;;17.49;86.81;97288.84;6215694;23;20095;-85
2022/09/14 03:47:49;;;;;;;2.00;1.90;;;;;;;17.50;86.69;97274.53;6242284;23;20023;-86
2022/09/14 03:50:18;;;;;;;2.10;1.90;;;;;;;17.57;86.26;97272.41;6242389;23;20393;-87
2022/09/14 03:52:46;;;;;;;2.10;1.90;;;;;;;17.50;86.10;97263.91;6190808;23;20024;-85
2022/09/14 03:55:13;;;;;;;1.90;1.80;;;;;;;17.60;85.96;97272.69;6242327;23;20038;-85
2022/09/14 03:57:40;;;;;;;1.73;1.55;;;;;;;17.61;85.98;97254.91;6243755;23;20529;-90
2022/09/14 04:00:08;;;;;;;1.98;1.80;;;;;;;17.58;85.56;97244.84;6194911;23;20107;-91
2022/09/14 04:02:34;;;;;;;1.73;1.63;;;;;;;17.60;85.65;97240.06;6220221;23;20020;-90
2022/09/14 04:05:01;;;;;;;2.92;2.00;;;;;;;17.58;85.81;97236.91;6246337;23;20066;-91
2022/09/14 04:07:29;;;;;;;2.10;1.95;;;;;;;17.44;85.71;97220.72;6219121;23;20017;-91
2022/09/14 04:09:56;;;;;;;2.85;2.65;;;;;;;17.54;86.11;97225.22;6225493;23;20381;-91
2022/09/14 04:12:23;;;;;;;3.33;3.03;;;;;;;17.41;85.50;97192.09;6221658;23;20046;-89
2022/09/14 04:14:50;;;;;;;3.90;2.80;;;;;;;17.36;85.90;97190.22;6220362;23;20027;-87
2022/09/14 04:17:17;;;;;;;3.40;3.10;;;;;;;17.33;86.08;97219.09;6247904;23;20019;-92
2022/09/14 04:19:43;;;;;;;5.88;4.15;;;;;;;17.15;87.80;97236.31;6221913;23;20020;-90
2022/09/14 04:22:10;;;;;;;3.33;3.03;;;;;;;17.04;88.57;97251.41;6195167;23;20024;-88
2022/09/14 04:24:37;;;;;;;4.07;3.50;;;;;;;17.07;88.88;97252.72;6258715;22;20027;-93
2022/09/14 04:27:07;;;;;;;2.30;2.10;;;;;;;17.12;88.78;97239.50;6246258;23;20012;-91
2022/09/14 04:29:34;;;;;;;2.05;1.85;;;;;;;17.24;88.69;97232.09;6245346;23;20388;-91
2022/09/14 04:32:01;;;;;;;2.40;2.20;;;;;;;17.31;88.46;97221.22;6243490;23;20082;-87
2022/09/14 04:34:28;;;;;;;1.90;1.80;;;;;;;17.28;88.06;97208.53;6247456;23;20362;-95
2022/09/14 04:37:13;;;;;;;3.05;2.75;;;;;;;17.19;87.72;97208.22;6225272;23;20030;-92
2022/09/14 04:39:42;;;;;;;3.92;3.40;;;;;;;17.17;88.02;97209.56;6196402;23;20099;-89
2022/09/14 04:42:08;;;;;;;4.25;3.95;;;;;;;17.10;88.65;97213.28;6220844;23;20092;-90
2022/09/14 04:44:35;;;;;;;4.25;3.85;;;;;;;17.05;88.82;97223.84;6222435;23;20074;-92
2022/09/14 04:47:02;;;;;;;3.08;2.70;;;;;;;17.03;88.58;97183.59;6195178;23;20022;-92
2022/09/14 04:49:29;;;;;;;3.33;2.80;;;;;;;17.05;88.33;97167.44;6245362;23;20024;-87
2022/09/14 04:51:56;;;;;;;3.65;3.35;;;;;;;17.00;88.26;97178.81;6218308;23;20480;-90
2022/09/14 04:54:24;;;;;;;3.13;2.83;;;;;;;17.07;88.21;97189.16;6246194;23;20434;-90
2022/09/14 04:56:50;;;;;;;3.97;3.55;;;;;;;17.05;88.53;97210.59;6247060;23;20024;-92
2022/09/14 04:59:17;;;;;;;3.90;3.53;;;;;;;16.99;88.63;97205.56;6193317;23;20442;-91
2022/09/14 05:01:46;;;;;;;4.03;3.63;;;;;;;17.05;88.87;97213.25;6245317;23;20103;-92
2022/09/14 05:04:14;;;;;;;2.70;2.50;;;;;;;17.08;89.10;97196.03;6195145;23;20030;-90
2022/09/14 05:06:43;;;;;;;3.00;2.70;;;;;;;17.04;88.55;97179.09;6194293;23;20028;-95
2022/09/14 05:09:14;;;;;;;4.47;4.07;;;;;;;16.96;88.85;97184.88;6194464;23;20126;-91
2022/09/14 05:11:42;;;;;;;4.20;3.13;;;;;;;17.02;88.77;97192.56;6219954;23;20020;-91
2022/09/14 05:14:12;;;;;;;3.40;3.10;;;;;;;16.92;89.17;97181.19;6194425;23;20024;-91
2022/09/14 05:16:41;;;;;;;3.57;3.20;;;;;;;17.01;89.08;97193.63;6222271;23;20419;-91
2022/09/14 05:19:13;;;;;;;4.47;4.07;;;;;;;16.92;89.38;97184.63;6220906;23;20342;-91
2022/09/14 05:21:40;;;;;;;3.88;3.50;;;;;;;16.92;89.36;97175.91;6246861;23;20024;-90
2022/09/14 05:24:13;;;;;;;4.05;3.65;;;;;;;16.94;89.76;97174.56;6246361;23;20022;-93
2022/09/14 05:26:42;;;;;;;5.35;4.47;;;;;;;16.82;89.65;97172.16;6195222;23;20032;-92
2022/09/14 05:29:16;;;;;;;4.15;3.67;;;;;;;16.96;89.83;97200.78;6221940;23;20008;-91
2022/09/14 05:31:45;;;;;;;4.97;4.47;;;;;;;16.87;89.93;97186.47;6196861;23;20047;-91
2022/09/14 05:34:12;;;;;;;3.80;3.50;;;;;;;16.95;90.03;97180.66;6217829;23;20111;-91
2022/09/14 05:36:51;;;;;;;4.03;3.63;;;;;;;16.87;89.68;97157.34;6222871;23;20074;-91
2022/09/14 05:39:18;;;;;;;4.40;4.00;;;;;;;16.82;90.27;97150.19;6197799;23;20324;-92
2022/09/14 05:41:49;;;;;;;;;;;;;;;16.82;90.45;97148.31;6253562;23;20023;-91
2022/09/14 05:44:16;;;;;;;5.40;4.90;;;;;;;16.69;90.75;97124.19;6195301;23;19943;-89
2022/09/14 05:46:43;;;;;;;5.95;5.43;;;;;;;16.69;91.17;97124.19;6219965;23;20020;-91
2022/09/14 05:49:10;;;;;;;6.60;5.95;;;;;;;16.58;91.30;97128.66;6247409;23;20387;-86
2022/09/14 05:51:36;;;;;;;5.55;4.53;;;;;;;16.71;91.39;97138.75;6247611;23;20091;-90
2022/09/14 05:54:08;;;;;;;5.90;5.35;;;;;;;16.67;91.41;97137.66;6246391;23;20027;-91
2022/09/14 05:56:36;;;;;;;6.03;5.35;;;;;;;16.63;91.67;97135.81;6194587;23;20020;-90
2022/09/14 05:59:03;;;;;;;5.65;5.10;;;;;;;16.62;91.84;97140.31;6219620;23;20088;-91
2022/09/14 06:01:31;;;;;;;5.68;5.18;;;;;;;16.67;92.11;97127.06;6193893;23;20070;-87
2022/09/14 06:04:01;;;;;;;5.82;5.32;;;;;;;16.64;91.84;97127.59;6243543;23;20024;-89
2022/09/14 06:06:30;;;;;;;5.20;4.60;;;;;;;16.64;91.85;97105.63;6246491;23;20385;-89
2022/09/14 06:08:58;;;;;;;7.07;6.38;;;;;;;16.63;91.73;97110.13;6194174;23;20027;-89
2022/09/14 06:11:31;;;;;;;5.60;5.07;;;;;;;16.57;92.00;97119.13;6245909;23;20024;-92
2022/09/14 06:13:59;;;;;;;6.38;5.78;;;;;;;16.59;92.24;97119.66;6218744;23;20430;-90
2022/09/14 06:16:27;;;;;;;5.20;4.68;;;;;;;16.56;92.39;97099.00;6220394;23;20036;-90
2022/09/14 06:18:57;;;;;;;5.95;5.35;;;;;;;16.59;92.36;97103.75;6194026;23;20023;-89
2022/09/14 06:21:33;;;;;;;5.93;5.32;;;;;;;16.52;92.58;97103.22;6219097;23;20051;-86
2022/09/14 06:24:00;;;;;;;6.28;5.68;;;;;;;16.54;92.68;97109.03;6242545;23;20094;-83
2022/09/14 06:26:27;;;;;;;6.45;5.78;;;;;;;16.50;93.08;97094.75;6245554;22;20436;-92
2022/09/14 06:28:54;;;;;;;6.88;5.97;;;;;;;16.50;93.16;97094.75;6194856;23;20062;-91
2022/09/14 06:31:24;;;;;;;6.82;6.10;;;;;;;16.51;93.15;97093.69;6244581;23;20024;-92
2022/09/14 06:33:51;;;;;;;6.27;5.47;;;;;;;16.68;92.80;97098.78;6243787;23;20783;-88
2022/09/14 06:36:24;;;;;;;5.80;5.30;;;;;;;16.65;92.60;97093.97;6220606;23;20020;-89
2022/09/14 06:38:53;;;;;;;5.60;5.10;;;;;;;16.60;92.23;97082.31;6241601;23;20020;-91
2022/09/14 06:41:25;;;;;;;4.88;4.32;;;;;;;16.74;92.22;97100.41;6220011;23;20235;-93
2022/09/14 06:43:55;;;;;;;4.50;4.10;;;;;;;16.83;92.01;97090.84;6220513;23;20016;-89
2022/09/14 06:46:32;;;;;;;5.30;4.80;;;;;;;16.74;91.91;97082.66;6219417;23;20066;-90
2022/09/14 06:49:10;;;;;;;4.88;4.38;;;;;;;16.82;91.88;97097.22;6194483;23;20028;-92
2022/09/14 06:51:44;;;;;;;5.57;5.07;;;;;;;16.77;91.86;97090.06;6198049;23;20027;-92
2022/09/14 06:54:15;;;;;;;4.85;4.35;;;;;;;16.89;91.63;97102.25;6196367;23;20350;-93
2022/09/14 06:56:44;;;;;;;4.30;3.90;;;;;;;17.05;92.13;97111.81;6218473;23;20069;-91
2022/09/14 06:59:14;;;;;;;4.88;4.18;;;;;;;17.08;91.34;97106.75;6219702;23;20012;-91
2022/09/14 07:01:44;;;;;;;3.78;3.47;;;;;;;17.18;91.07;97099.88;6194997;23;20038;-92
2022/09/14 07:04:11;;;;;;;4.18;3.88;;;;;;;17.22;90.87;97107.03;6218727;23;20020;-90
2022/09/14 07:06:48;;;;;;;5.07;4.57;;;;;;;17.28;90.82;97110.47;6218455;23;20016;-91
2022/09/14 07:09:18;;;;;;;5.32;4.20;;;;;;;17.23;90.51;97100.66;6218935;23;20012;-91
2022/09/14 07:11:57;;;;;;;4.85;3.45;;;;;;;17.32;89.86;97112.31;6194874;23;20077;-92
2022/09/14 07:14:25;;;;;;;4.38;3.97;;;;;;;17.34;89.79;97104.91;6212423;23;20058;-88
2022/09/14 07:16:58;;;;;;;4.15;3.75;;;;;;;17.26;89.76;97107.28;6218769;23;20438;-89
2022/09/14 07:19:24;;;;;;;4.13;3.80;;;;;;;17.27;89.95;97108.88;6217989;23;20009;-89
2022/09/14 07:21:53;;;;;;;3.78;3.47;;;;;;;17.35;89.99;97111.78;6224558;23;20114;-92
2022/09/14 07:24:20;;;;;;;6.00;4.30;;;;;;;17.28;90.33;97116.56;6241132;23;20040;-89
2022/09/14 07:27:03;;;;;;;3.65;3.30;;;;;;;17.35;90.48;97111.00;6221851;23;20449;-87
2022/09/14 07:29:36;;;;;;;5.07;4.57;;;;;;;17.28;90.15;97099.88;6218455;23;20377;-89
2022/09/14 07:32:03;;;;;;;5.80;4.75;;;;;;;17.38;90.45;97108.59;6244085;23;20082;-88
2022/09/14 07:34:30;;;;;;;4.85;4.32;;;;;;;17.32;90.07;97100.91;6243635;23;20518;-87
2022/09/14 07:36:57;;;;;;;8.13;4.82;;;;;;;17.33;90.65;97092.72;6219845;23;20070;-87
2022/09/14 07:39:24;;;;;;;4.93;4.35;;;;;;;17.30;90.35;97098.53;6219315;23;20008;-90
2022/09/14 07:41:50;;;;;;;4.40;4.00;;;;;;;17.43;90.42;97101.69;6219434;23;20016;-87
2022/09/14 07:44:17;;;;;;;3.60;3.30;;;;;;;17.41;90.61;97106.47;6218373;23;20715;-87
2022/09/14 07:46:45;;;;;;;4.15;3.75;;;;;;;17.44;90.71;97113.88;6245925;23;20388;-89
2022/09/14 07:49:15;;;;;;;3.30;3.00;;;;;;;17.51;90.76;97114.41;6246955;23;20027;-89
2022/09/14 07:51:43;;;;;;;3.30;3.00;;;;;;;17.60;90.10;97107.50;6219767;23;20024;-87
2022/09/14 07:54:15;;;;;;;3.83;3.50;;;;;;;17.63;89.61;97112.25;6246134;23;20039;-88
2022/09/14 07:56:43;;;;;;;8.63;5.45;;;;;;;17.53;90.65;97117.59;6218597;23;20016;-88
2022/09/14 07:59:13;;;;;;;3.75;3.45;;;;;;;17.66;90.15;97117.03;6219132;23;20589;-89
2022/09/14 08:02:00;;;;;;;4.10;2.80;;;;;;;17.78;89.75;97120.22;6224134;23;20020;-87
2022/09/14 08:04:27;;;;;;;4.07;3.75;;;;;;;17.76;88.84;97106.44;6219110;23;20453;-87
2022/09/14 08:06:54;;;;;;;5.93;5.32;;;;;;;17.58;89.34;97121.03;6246095;23;20327;-90
2022/09/14 08:09:20;;;;;;;3.72;3.15;;;;;;;17.67;89.92;97123.94;6194693;23;20111;-88
2022/09/14 08:11:47;;;;;;;3.20;2.90;;;;;;;17.79;89.91;97121.00;6247898;23;20051;-91
2022/09/14 08:14:14;;;;;;;2.72;2.53;;;;;;;17.91;89.52;97121.50;6219204;23;20472;-89
2022/09/14 08:16:41;;;;;;;3.92;3.55;;;;;;;17.84;89.05;97118.34;6246124;23;20306;-92
2022/09/14 08:19:15;;;;;;;4.53;4.13;;;;;;;17.78;89.16;97130.84;6219450;23;20341;-92
2022/09/14 08:21:43;;;;;;;5.18;3.53;;;;;;;17.75;89.91;97120.78;6195752;23;20020;-90
2022/09/14 08:24:17;;;;;;;3.30;3.00;;;;;;;17.89;90.10;97116.47;6248711;23;20020;-90
2022/09/14 08:26:52;;;;;;;3.88;3.47;;;;;;;17.92;89.17;97112.47;6250566;23;20016;-90
2022/09/14 08:29:19;;;;;;;3.35;3.05;;;;;;;18.12;88.74;97124.91;6245731;23;20315;-90
2022/09/14 08:31:50;;;;;;;2.80;2.60;;;;;;;18.11;88.74;97123.28;6218776;23;20089;-90
2022/09/14 08:34:17;;;;;;;;;;;;;;;18.23;88.74;97123.78;6193656;23;20024;-91
2022/09/14 08:36:46;;;;;;;3.35;3.05;;;;;;;18.25;88.38;97128.81;6246189;23;19938;-92
2022/09/14 08:39:15;;;;;;;3.13;2.83;;;;;;;18.26;88.35;97123.25;6218874;23;20448;-91
2022/09/14 08:41:42;;;;;;;3.00;2.70;;;;;;;18.32;88.61;97130.13;6191850;23;20654;-93
2022/09/14 08:44:50;;;;;;;3.97;3.33;;;;;;;18.32;89.04;97121.34;6194160;23;20020;-92
2022/09/14 08:47:27;;;;;;;3.30;2.72;;;;;;;18.39;88.68;97113.88;6221551;23;20012;-91
2022/09/14 08:50:04;;;;;;;3.75;2.78;;;;;;;18.54;88.67;97115.69;6248238;23;20012;-91
2022/09/14 08:52:42;;;;;;;4.15;2.90;;;;;;;18.65;87.66;97115.34;6248860;23;20055;-90
2022/09/14 08:55:47;;;;;;;2.90;2.60;;;;;;;18.71;87.51;97118.78;6194933;23;20017;-90
2022/09/14 08:58:39;;;;;;;2.60;2.40;;;;;;;18.77;87.06;97122.97;6213830;23;20018;-88
2022/09/14 09:01:44;;;;;;;4.60;4.10;;;;;;;18.70;86.44;97125.94;6220248;23;20102;-90
2022/09/14 09:04:30;;;;;;;4.93;3.83;;;;;;;18.79;85.73;97123.53;6245236;23;20044;-90
2022/09/14 09:07:20;;;;;;;3.88;3.58;;;;;;;18.92;86.43;97133.53;6249906;23;20016;-89
2022/09/14 09:09:55;;;;;;;3.70;3.10;;;;;;;18.90;86.22;97140.97;6219342;23;20016;-90
2022/09/14 09:12:34;;;;;;;3.30;3.00;;;;;;;18.85;86.70;97122.41;6221208;23;20036;-92
2022/09/14 09:15:35;;;;;;;3.50;3.20;;;;;;;18.95;86.93;97129.50;6197983;23;20024;-91
2022/09/14 09:18:17;;;;;;;;;;;;;;;19.05;86.96;97131.31;6218203;23;20111;-87
2022/09/14 09:21:03;;;;;;;3.10;2.72;;;;;;;19.06;86.18;97143.53;6217059;23;19915;-88
2022/09/14 09:23:32;;;;;;;3.00;2.70;;;;;;;19.15;86.51;97141.88;6245113;23;20389;-88
2022/09/14 09:26:08;;;;;;;3.35;3.05;;;;;;;19.20;86.51;97132.00;6239831;22;20027;-85
2022/09/14 09:28:48;;;;;;;3.35;3.10;;;;;;;19.29;86.25;97136.69;6244323;23;20333;-87
2022/09/14 09:31:18;;;;;;;4.00;3.60;;;;;;;19.19;85.94;97150.84;6243577;23;20091;-88
2022/09/14 09:33:48;;;;;;;;;;;;;;;19.22;86.78;97155.63;6244571;23;20417;-89
2022/09/14 09:36:17;;;;;;;3.70;3.40;;;;;;;19.15;86.34;97140.00;6242807;23;19958;-86
2022/09/14 09:38:44;;;;;;;4.80;4.40;;;;;;;19.09;86.25;97156.25;6218383;23;20012;-89
2022/09/14 09:41:23;;;;;;;5.15;4.50;;;;;;;18.94;86.33;97154.50;6193013;23;20107;-88
2022/09/14 09:44:01;;;;;;;5.07;4.55;;;;;;;18.80;87.07;97167.59;6216604;23;20023;-88
2022/09/14 09:46:34;;;;;;;3.92;3.63;;;;;;;18.81;87.34;97173.72;6244540;23;20016;-87
2022/09/14 09:49:17;;;;;;;5.38;4.93;;;;;;;18.64;88.47;97174.03;6244273;23;20008;-87
2022/09/14 09:51:45;;;;;;;6.75;6.05;;;;;;;18.45;88.42;97161.38;6243064;23;20043;-87
2022/09/14 09:54:11;;;;;;;6.95;5.75;;;;;;;18.50;89.87;97183.66;6244946;23;20027;-87
2022/09/14 09:56:50;;;;;;;5.40;4.90;;;;;;;18.43;90.44;97184.75;6192777;23;20438;-90
2022/09/14 09:59:43;;;;;;;5.45;4.95;;;;;;;18.45;90.94;97193.22;6244520;23;20047;-89
2022/09/14 10:02:28;;;;;;;7.03;6.43;;;;;;;18.40;91.39;97189.81;6214424;23;20027;-90
2022/09/14 10:05:05;;;;;;;6.20;5.65;;;;;;;18.47;91.10;97192.94;6243620;23;20028;-91
2022/09/14 10:07:39;;;;;;;5.80;4.85;;;;;;;18.50;91.39;97188.97;6244356;23;20102;-90
2022/09/14 10:10:14;;;;;;;6.15;5.45;;;;;;;18.45;91.14;97198.53;6243130;23;20039;-91
2022/09/14 10:12:53;;;;;;;7.72;6.93;;;;;;;18.45;90.75;97198.53;6217834;23;20427;-87
2022/09/14 10:15:27;;;;;;;5.80;5.30;;;;;;;18.45;91.17;97185.25;6216481;23;20020;-87
2022/09/14 10:18:11;;;;;;;6.32;5.72;;;;;;;18.57;91.14;97186.81;6214926;23;20024;-90
2022/09/14 10:21:05;;;;;;;6.25;5.65;;;;;;;18.60;90.90;97183.63;6216660;23;20507;-87
2022/09/14 10:23:36;;;;;;;7.15;6.43;;;;;;;18.63;89.99;97178.53;6218821;23;20019;-88
2022/09/14 10:26:26;;;;;;;7.82;6.68;;;;;;;18.70;89.25;97159.69;6213501;23;20095;-86
2022/09/14 10:28:54;;;;;;;5.28;4.78;;;;;;;18.89;89.66;97151.88;6216240;23;20019;-86
2022/09/14 10:31:36;;;;;;;6.22;5.60;;;;;;;18.87;88.06;97157.47;6244057;23;20023;-87
2022/09/14 10:34:19;;;;;;;7.25;4.95;;;;;;;18.85;89.52;97153.50;6192912;23;20468;-87
2022/09/14 10:37:05;;;;;;;5.32;4.82;;;;;;;18.83;89.08;97145.81;6244093;23;20434;-87
2022/09/14 10:39:51;;;;;;;7.30;6.50;;;;;;;18.80;89.63;97166.81;6217347;23;20012;-87
2022/09/14 10:42:34;;;;;;;8.20;6.93;;;;;;;18.81;89.63;97169.19;6244129;23;20022;-88
2022/09/14 10:45:19;;;;;;;7.30;6.60;;;;;;;18.89;88.23;97167.81;6217692;23;20020;-87
2022/09/14 10:48:42;;;;;;;8.45;6.72;;;;;;;18.98;87.09;97169.63;6214759;23;20020;-84
2022/09/14 10:51:33;;;;;;;5.82;5.22;;;;;;;19.17;87.04;97155.66;6210456;23;20078;-86
2022/09/14 10:55:01;;;;;;;6.25;5.65;;;;;;;19.29;85.92;97148.13;6214300;23;20024;-86
2022/09/14 10:58:24;;;;;;;5.10;4.60;;;;;;;19.49;84.87;97140.00;6195280;23;20020;-88
2022/09/14 11:01:15;;;;;;;6.18;5.57;;;;;;;19.53;84.92;97148.97;6234224;23;20016;-86
2022/09/14 11:04:21;;;;;;;5.03;4.53;;;;;;;19.50;84.34;97146.09;6233161;23;20082;-84
2022/09/14 11:07:23;;;;;;;4.85;4.35;;;;;;;19.46;84.03;97143.19;6207312;23;20026;-84
2022/09/14 11:10:35;;;;;;;4.93;4.53;;;;;;;19.46;83.92;97127.25;6233274;23;20091;-85
2022/09/14 11:13:26;;;;;;;4.30;3.88;;;;;;;19.57;84.58;97127.16;6234014;23;20499;-86
2022/09/14 11:16:46;;;;;;;4.30;3.90;;;;;;;19.63;85.25;97131.38;6238642;23;20016;-84
2022/09/14 11:19:19;;;;;;;4.63;3.92;;;;;;;19.80;84.64;97121.09;6217467;23;20484;-84
2022/09/14 11:22:41;;;;;;;4.68;4.22;;;;;;;19.87;83.40;97126.09;6212200;23;20016;-84
2022/09/14 11:25:30;;;;;;;5.43;4.93;;;;;;;19.77;84.55;97141.06;6170523;23;20157;-85
2022/09/14 11:28:06;;;;;;;6.40;5.80;;;;;;;19.69;84.30;97130.25;6236141;23;20034;-86
2022/09/14 11:30:49;;;;;;;5.63;5.07;;;;;;;19.74;82.90;97135.53;6241077;23;20101;-86
2022/09/14 11:33:37;;;;;;;5.75;5.20;;;;;;;19.75;82.79;97121.94;6239344;23;20020;-85
2022/09/14 11:36:46;;;;;;;5.22;4.72;;;;;;;19.71;83.24;97117.47;6240521;23;20016;-84
2022/09/14 11:39:23;;;;;;;5.78;5.22;;;;;;;19.73;82.92;97115.28;6184961;23;20533;-84
2022/09/14 11:41:58;;;;;;;4.72;4.28;;;;;;;19.89;82.96;97118.59;6213617;23;20020;-86
2022/09/14 11:44:37;;;;;;;4.40;4.00;;;;;;;19.88;82.99;97111.69;6239157;23;20052;-85
2022/09/14 11:47:19;;;;;;;3.53;3.22;;;;;;;20.15;82.65;97095.13;6240109;23;20023;-85
2022/09/14 11:50:22;;;;;;;4.22;3.83;;;;;;;20.35;81.44;97102.09;6244315;23;20380;-84
2022/09/14 11:53:19;;;;;;;3.55;3.25;;;;;;;20.43;80.50;97096.91;6243567;23;20016;-86
2022/09/14 11:55:49;;;;;;;3.00;2.80;;;;;;;20.48;81.10;97083.56;6216652;23;20012;-85
2022/09/14 11:58:20;;;;;;;;;;;;;;;20.61;81.39;97089.25;6245372;23;20430;-84
2022/09/14 12:01:02;;;;;;;;;;;;;;;20.63;81.20;97092.41;6242712;23;19951;-84
2022/09/14 12:04:04;;;;;;;2.72;2.45;;;;;;;20.66;82.25;97091.84;6243465;23;19920;-84
2022/09/14 12:06:34;;;;;;;4.22;3.03;;;;;;;20.60;81.99;97098.31;6217543;23;20016;-88
2022/09/14 12:09:16;;;;;;;3.00;2.70;;;;;;;20.71;83.86;97091.75;6243222;23;20666;-89
2022/09/14 12:11:45;;;;;;;4.93;4.43;;;;;;;20.60;82.63;97079.66;6217684;23;20107;-90
2022/09/14 12:14:39;;;;;;;3.22;2.85;;;;;;;20.80;82.76;97079.34;6242559;23;20314;-89